Vano — SBNM — position and weather

sailwx.info

Track history (hours):
 
Tides and Currents Weather Stations Pressure Air Temp Water Temp Dewpoint Dewpoint Depression Visibility Wind Speed Wind Dir Waves Ship Positions

Vano

Last reported at 2017-Nov-23 19:00 UTC. Time now 2017-Nov-23 20:49 UTC.
Position N 59°27' E 018°55'.

Length 38 m; draft 2.5 m.

Type: Passenger vessel. MMSI: 265520400.

Date/timePositionNaut miles runAvg speedWind from/ knotsBaromVisibWave heightAir tempDewpointWater temp
2017-Nov-23 19:00N 59°27' E 018°55'0 0.0
2017-Nov-23 18:30N 59°27' E 018°55'1 2.4
2017-Nov-23 18:00N 59°25' E 018°55'3 6.6
2017-Nov-23 17:29N 59°23' E 018°50'7 2.7
2017-Nov-23 14:53N 59°22' E 018°36'6 5.0
2017-Nov-23 13:46N 59°24' E 018°47'4 5.7
2017-Nov-23 13:01N 59°25' E 018°55'0 9.0
2017-Nov-23 12:59N 59°25' E 018°55'1 2.5
2017-Nov-23 12:30N 59°27' E 018°55'0 0.0
2017-Nov-23 12:00N 59°27' E 018°55'1 2.4
2017-Nov-23 11:30N 59°25' E 018°55'3 5.1
2017-Nov-23 10:53N 59°22' E 018°53'3 7.6
2017-Nov-23 10:26N 59°24' E 018°47'3 5.2
2017-Nov-23 09:50N 59°22' E 018°42'3 1.0
2017-Nov-23 06:55N 59°22' E 018°36'4 8.7
2017-Nov-23 06:26N 59°26' E 018°39'2 3.5
2017-Nov-23 06:00N 59°26' E 018°42'5 9.9
2017-Nov-23 05:31N 59°29' E 018°49'2 3.9
2017-Nov-23 05:00N 59°28' E 018°47'  
2017-Nov-20 00:30N 59°20' E 018°05'0 0.0
2017-Nov-20 00:01N 59°20' E 018°05'0 0.0
2017-Nov-19 23:30N 59°20' E 018°05'0 0.0
2017-Nov-19 23:01N 59°20' E 018°05'0 0.0
2017-Nov-19 22:30N 59°20' E 018°05'0 0.0
2017-Nov-19 22:01N 59°20' E 018°05'0 0.0
2017-Nov-19 21:30N 59°20' E 018°05'0 0.0
2017-Nov-19 21:00N 59°20' E 018°05'0 0.0
2017-Nov-19 20:31N 59°20' E 018°05'0 0.0
2017-Nov-19 20:00N 59°20' E 018°05'4 8.9
2017-Nov-19 19:30N 59°21' E 018°13'510.9
2017-Nov-19 19:01N 59°24' E 018°21'3 5.1
2017-Nov-19 18:30N 59°26' E 018°25'7 8.7
2017-Nov-19 17:44N 59°23' E 018°38'3 9.1
2017-Nov-19 17:23N 59°26' E 018°39'2 5.0
2017-Nov-19 16:59N 59°27' E 018°43'0 0.0
2017-Nov-19 16:30N 59°26' E 018°43'713.5
2017-Nov-19 15:59N 59°25' E 018°30'510.2
2017-Nov-19 15:30N 59°24' E 018°21'713.5
2017-Nov-19 15:00N 59°19' E 018°11'3 6.2
2017-Nov-19 14:30N 59°20' E 018°04'2 3.0
2017-Nov-19 14:00N 59°19' E 018°07'611.9
2017-Nov-19 13:30N 59°22' E 018°17'4 7.8
2017-Nov-19 13:00N 59°25' E 018°23'611.4
2017-Nov-19 12:30N 59°24' E 018°34'4 7.6
2017-Nov-19 11:59N 59°26' E 018°41'3 5.7
2017-Nov-19 11:30N 59°28' E 018°44'0 0.3
2017-Nov-19 10:23N 59°28' E 018°45'2 4.5
2017-Nov-19 10:00N 59°26' E 018°43'3 6.3
2017-Nov-19 09:30N 59°25' E 018°38'2 4.2
2017-Nov-19 08:59N 59°24' E 018°34'4 9.5
2017-Nov-19 08:30N 59°26' E 018°25'4 7.9
2017-Nov-19 08:00N 59°23' E 018°20'713.3
2017-Nov-19 07:30N 59°19' E 018°09'2 4.6
2017-Nov-19 07:01N 59°20' E 018°04'0 0.0
2017-Nov-19 06:31N 59°20' E 018°04'0 0.0
2017-Nov-19 06:01N 59°20' E 018°04'0 0.0
2017-Nov-19 05:31N 59°20' E 018°04'0 0.0
2017-Nov-19 05:01N 59°20' E 018°04'0 0.0
2017-Nov-19 04:30N 59°20' E 018°04'0 0.0
2017-Nov-19 04:00N 59°20' E 018°04'0 0.0
2017-Nov-19 03:31N 59°20' E 018°04'0 0.0
2017-Nov-19 03:01N 59°20' E 018°04'0 0.0
2017-Nov-19 02:30N 59°20' E 018°04'0 0.0
2017-Nov-19 02:01N 59°20' E 018°04'0 0.0
2017-Nov-19 01:31N 59°20' E 018°04'0 0.0
2017-Nov-19 01:01N 59°20' E 018°04'0 0.0
2017-Nov-19 00:31N 59°20' E 018°04'0 0.0
2017-Nov-19 00:00N 59°20' E 018°04'0 0.0
2017-Nov-18 23:30N 59°20' E 018°04'0 0.0
2017-Nov-18 23:00N 59°20' E 018°04'0 0.0
2017-Nov-18 22:30N 59°20' E 018°04'0 0.0
2017-Nov-18 22:01N 59°20' E 018°04'0 0.0
2017-Nov-18 21:30N 59°20' E 018°04'0 0.0
2017-Nov-18 21:00N 59°20' E 018°04'0 0.0
2017-Nov-18 20:30N 59°20' E 018°04'0 0.0
2017-Nov-18 20:00N 59°20' E 018°04'0 0.0
2017-Nov-18 19:30N 59°20' E 018°04'0 0.0
2017-Nov-18 19:01N 59°20' E 018°04'0 0.0
2017-Nov-18 18:30N 59°20' E 018°04'0 0.0
2017-Nov-18 18:00N 59°20' E 018°04'0 0.0
2017-Nov-18 17:30N 59°20' E 018°04'4 7.9
2017-Nov-18 17:00N 59°20' E 018°12'612.3
2017-Nov-18 16:30N 59°24' E 018°21'3 6.8
2017-Nov-18 16:00N 59°25' E 018°28'511.2
2017-Nov-18 15:31N 59°22' E 018°36'4 7.6
2017-Nov-18 14:58N 59°26' E 018°39'0 0.1
2017-Nov-18 10:23N 59°26' E 018°39'410.1
2017-Nov-18 10:01N 59°24' E 018°33'3 5.8
2017-Nov-18 09:30N 59°26' E 018°28'3 7.1
2017-Nov-18 09:01N 59°24' E 018°21'5 9.0
2017-Nov-18 08:30N 59°21' E 018°14'510.5
2017-Nov-18 08:01N 59°20' E 018°04'0 0.1
2017-Nov-18 07:30N 59°20' E 018°04'0 0.0
2017-Nov-18 07:00N 59°20' E 018°04'0 0.0
2017-Nov-18 06:30N 59°20' E 018°04'0 0.0
2017-Nov-18 06:00N 59°20' E 018°04'0 0.0
2017-Nov-18 05:30N 59°20' E 018°04'0 0.0
2017-Nov-18 05:01N 59°20' E 018°04'0 0.0
2017-Nov-18 04:31N 59°20' E 018°04'0 0.0
2017-Nov-18 04:00N 59°20' E 018°04'0 0.0
2017-Nov-18 03:31N 59°20' E 018°04'0 0.0
2017-Nov-18 03:00N 59°20' E 018°04'0 0.0
2017-Nov-18 02:30N 59°20' E 018°04'0 0.0
2017-Nov-18 02:00N 59°20' E 018°04'0 0.0
2017-Nov-18 01:30N 59°20' E 018°04'0 0.0
2017-Nov-18 01:01N 59°20' E 018°04'0 0.0
2017-Nov-18 00:30N 59°20' E 018°04'0 0.0
2017-Nov-18 00:00N 59°20' E 018°04'0 0.0
2017-Nov-17 23:31N 59°20' E 018°04'0 0.0
2017-Nov-17 23:00N 59°20' E 018°04'0 0.0
2017-Nov-17 22:30N 59°20' E 018°04'1 2.5
2017-Nov-17 22:01N 59°19' E 018°07'612.8
2017-Nov-17 21:30N 59°23' E 018°17'5 9.8
2017-Nov-17 20:59N 59°26' E 018°25'510.5
2017-Nov-17 20:30N 59°24' E 018°35'810.8
2017-Nov-17 19:46N 59°28' E 018°48'2 5.4
2017-Nov-17 19:28N 59°30' E 018°50'9 7.5
2017-Nov-17 18:19N 59°26' E 018°35'413.0
2017-Nov-17 18:00N 59°26' E 018°26'4 7.7
2017-Nov-17 17:30N 59°24' E 018°21'4 8.6
2017-Nov-17 17:01N 59°21' E 018°15'510.7
2017-Nov-17 16:30N 59°20' E 018°04'0 0.1
2017-Nov-17 16:00N 59°20' E 018°04'0 0.0
2017-Nov-17 15:30N 59°20' E 018°04'0 0.0
2017-Nov-17 15:00N 59°20' E 018°04'0 0.0
2017-Nov-17 14:30N 59°20' E 018°04'0 0.0
2017-Nov-17 14:00N 59°20' E 018°04'0 0.0
2017-Nov-17 13:30N 59°20' E 018°04'0 0.0
2017-Nov-17 13:01N 59°20' E 018°04'0 0.0
2017-Nov-17 12:31N 59°20' E 018°04'0 0.0
2017-Nov-17 12:00N 59°20' E 018°04'0 0.0
2017-Nov-17 11:30N 59°20' E 018°04'0 0.0
2017-Nov-17 11:00N 59°20' E 018°04'0 0.0
2017-Nov-17 10:30N 59°20' E 018°04'0 0.0
2017-Nov-17 10:00N 59°20' E 018°04'0 0.0
2017-Nov-17 09:30N 59°20' E 018°04'1 2.0
2017-Nov-17 09:01N 59°19' E 018°06'5 9.7
2017-Nov-17 08:30N 59°21' E 018°14'4 8.5
2017-Nov-17 08:00N 59°24' E 018°21'3 6.8
2017-Nov-17 07:30N 59°26' E 018°27'510.6
2017-Nov-17 06:59N 59°23' E 018°36'4 8.3
2017-Nov-17 06:29N 59°23' E 018°44'3 5.6
2017-Nov-17 06:00N 59°23' E 018°50'4 7.2
2017-Nov-17 05:30N 59°25' E 018°55'1 2.4
2017-Nov-17 05:01N 59°27' E 018°55'0 0.0
2017-Nov-17 04:31N 59°27' E 018°55'0 0.0
2017-Nov-17 04:01N 59°27' E 018°55'0 0.0
2017-Nov-17 03:31N 59°27' E 018°55'0 0.0
2017-Nov-17 03:01N 59°27' E 018°55'0 0.0
2017-Nov-17 02:31N 59°27' E 018°55'0 0.0
2017-Nov-17 02:01N 59°27' E 018°55'0 0.0
2017-Nov-17 01:31N 59°27' E 018°55'0 0.0
2017-Nov-17 01:01N 59°27' E 018°55'0 0.0
2017-Nov-17 00:31N 59°27' E 018°55'0 0.0
2017-Nov-17 00:01N 59°27' E 018°55'0 0.0
2017-Nov-16 23:31N 59°27' E 018°55'0 0.0
2017-Nov-16 23:01N 59°27' E 018°55'0 0.0
2017-Nov-16 22:29N 59°27' E 018°55'0 0.0
2017-Nov-16 21:58N 59°27' E 018°55'0 0.0
2017-Nov-16 21:29N 59°27' E 018°55'0 0.0
2017-Nov-16 21:00N 59°27' E 018°55'0 0.0
2017-Nov-16 20:29N 59°27' E 018°55'0 0.0
2017-Nov-16 20:01N 59°27' E 018°55'0 0.0
2017-Nov-16 19:30N 59°27' E 018°55'0 0.0
2017-Nov-16 19:00N 59°27' E 018°55'0 0.0
2017-Nov-16 18:31N 59°27' E 018°55'1 2.1
2017-Nov-16 18:01N 59°27' E 018°53'3 4.4
2017-Nov-16 17:26N 59°24' E 018°53'3 6.9
2017-Nov-16 16:59N 59°24' E 018°47'5 7.7
2017-Nov-16 16:24N 59°23' E 018°39'1 0.8
2017-Nov-16 14:55N 59°22' E 018°36'4 8.0
2017-Nov-16 14:27N 59°23' E 018°43'6 4.4
2017-Nov-16 13:02N 59°25' E 018°55'1 7.9
2017-Nov-16 12:51N 59°27' E 018°55'1 3.3
2017-Nov-16 12:30N 59°27' E 018°53'0 0.0
2017-Nov-16 12:00N 59°27' E 018°53'1 2.1
2017-Nov-16 11:30N 59°27' E 018°55'5 6.8
2017-Nov-16 10:50N 59°23' E 018°50'2 5.4
2017-Nov-16 10:29N 59°24' E 018°47'2 3.5
2017-Nov-16 09:51N 59°23' E 018°43'4 1.2
2017-Nov-16 06:55N 59°22' E 018°36'4 8.9
2017-Nov-16 06:26N 59°26' E 018°39'2 4.9
2017-Nov-16 06:00N 59°26' E 018°44'4 8.2
2017-Nov-16 05:31N 59°29' E 018°50'1 1.7
2017-Nov-16 04:52N 59°30' E 018°51'0 0.0
2017-Nov-16 04:29N 59°30' E 018°51'0 0.0
2017-Nov-16 04:00N 59°30' E 018°51'0 0.0
2017-Nov-16 03:29N 59°30' E 018°51'0 0.0
2017-Nov-16 03:00N 59°30' E 018°51'0 0.0
2017-Nov-16 02:29N 59°30' E 018°51'0 0.0
2017-Nov-16 02:00N 59°30' E 018°51'0 0.0
2017-Nov-16 01:28N 59°30' E 018°51'0 0.0
2017-Nov-16 00:51N 59°30' E 018°51'0 0.0
2017-Nov-16 00:27N 59°30' E 018°51'0 0.0
2017-Nov-15 23:36N 59°30' E 018°51'0 0.0
2017-Nov-15 17:33N 59°30' E 018°51'0 2.2
2017-Nov-15 17:30N 59°30' E 018°51'610.7
2017-Nov-15 16:57N 59°26' E 018°42'3 5.7
2017-Nov-15 16:24N 59°24' E 018°37'5 5.9
2017-Nov-15 15:31N 59°25' E 018°27'013.6
2017-Nov-15 15:30N 59°25' E 018°27'3 7.0
2017-Nov-15 15:00N 59°24' E 018°21'4 8.5
2017-Nov-15 14:30N 59°21' E 018°15'510.6
2017-Nov-15 14:00N 59°20' E 018°04'0 0.0
2017-Nov-15 13:30N 59°20' E 018°05'0 0.0
2017-Nov-15 13:00N 59°20' E 018°05'0 0.0
2017-Nov-15 12:30N 59°20' E 018°05'0 0.0
2017-Nov-15 12:00N 59°20' E 018°05'0 0.0
2017-Nov-15 11:30N 59°20' E 018°05'0 0.0
2017-Nov-15 11:01N 59°20' E 018°05'0 0.0
2017-Nov-15 10:30N 59°20' E 018°05'0 0.0
2017-Nov-15 10:00N 59°20' E 018°05'0 0.0
2017-Nov-15 09:30N 59°20' E 018°05'0 0.0
2017-Nov-15 09:00N 59°20' E 018°05'0 0.0
2017-Nov-15 08:30N 59°20' E 018°05'0 0.0
2017-Nov-15 08:00N 59°20' E 018°05'0 0.0
2017-Nov-15 07:30N 59°20' E 018°05'0 0.0
2017-Nov-15 07:00N 59°20' E 018°05'3 6.1
2017-Nov-15 06:30N 59°19' E 018°10'510.7
2017-Nov-15 06:00N 59°23' E 018°19'2 4.2
2017-Nov-15 05:30N 59°24' E 018°23'0 0.8
2017-Nov-15 05:00N 59°24' E 018°22'0 0.8
2017-Nov-15 04:30N 59°24' E 018°21'0 0.0
2017-Nov-15 04:00N 59°24' E 018°21'0 0.0
2017-Nov-15 03:30N 59°24' E 018°21'0 0.0
2017-Nov-15 03:00N 59°24' E 018°21'0 0.0
2017-Nov-15 02:30N 59°24' E 018°21'0 0.0
2017-Nov-15 02:00N 59°24' E 018°21'0 0.0
2017-Nov-15 01:30N 59°24' E 018°21'0 0.0
2017-Nov-15 01:00N 59°24' E 018°21'0 0.0
2017-Nov-15 00:30N 59°24' E 018°21'0 0.0
2017-Nov-15 00:01N 59°24' E 018°21'0 0.0
2017-Nov-14 23:30N 59°24' E 018°21'0 0.0
2017-Nov-14 23:00N 59°24' E 018°21'0 0.0
2017-Nov-14 22:30N 59°24' E 018°21'0 0.0
2017-Nov-14 22:00N 59°24' E 018°21'0 0.0
2017-Nov-14 21:30N 59°24' E 018°21'0 0.0
2017-Nov-14 21:00N 59°24' E 018°21'0 0.0
2017-Nov-14 20:30N 59°24' E 018°21'0 0.0
2017-Nov-14 20:00N 59°24' E 018°21'0 0.0
2017-Nov-14 19:30N 59°24' E 018°21'0 0.0
2017-Nov-14 19:00N 59°24' E 018°21'0 0.0
2017-Nov-14 18:30N 59°24' E 018°21'1 2.4
2017-Nov-14 18:00N 59°24' E 018°23'2 3.1
2017-Nov-14 17:31N 59°23' E 018°20'4 8.5
2017-Nov-14 17:00N 59°21' E 018°13'5 9.3
2017-Nov-14 16:30N 59°20' E 018°05'0 0.0
2017-Nov-14 16:00N 59°20' E 018°05'0 0.0
2017-Nov-14 15:30N 59°20' E 018°05'0 0.0
2017-Nov-14 15:00N 59°20' E 018°05'0 0.0
2017-Nov-14 14:31N 59°20' E 018°05'0 0.0
2017-Nov-14 14:00N 59°20' E 018°05'0 0.0
2017-Nov-14 13:30N 59°20' E 018°05'0 0.0
2017-Nov-14 13:00N 59°20' E 018°05'0 0.0
2017-Nov-14 12:30N 59°20' E 018°05'0 0.0
2017-Nov-14 12:00N 59°20' E 018°05'0 0.0
2017-Nov-14 11:30N 59°20' E 018°05'0 0.0
2017-Nov-14 11:00N 59°20' E 018°05'0 0.0
2017-Nov-14 10:31N 59°20' E 018°05'0 0.0
2017-Nov-14 10:00N 59°20' E 018°05'0 0.0
2017-Nov-14 09:30N 59°20' E 018°05'0 0.0
2017-Nov-14 09:00N 59°20' E 018°05'0 0.0
2017-Nov-14 08:30N 59°20' E 018°05'0 0.0
2017-Nov-14 08:00N 59°20' E 018°05'0 0.0
2017-Nov-14 07:30N 59°20' E 018°05'0 0.0
2017-Nov-14 07:00N 59°20' E 018°05'0 0.0
2017-Nov-14 06:30N 59°20' E 018°05'0 0.0
2017-Nov-14 06:00N 59°20' E 018°05'0 0.0
2017-Nov-14 05:30N 59°20' E 018°05'0 0.0
2017-Nov-14 05:00N 59°20' E 018°05'0 0.0
2017-Nov-14 04:30N 59°20' E 018°05'0 0.0
2017-Nov-14 04:00N 59°20' E 018°05'0 0.0
2017-Nov-14 03:30N 59°20' E 018°05'0 0.0
2017-Nov-14 03:00N 59°20' E 018°05'0 0.0
2017-Nov-14 02:31N 59°20' E 018°05'0 0.0
2017-Nov-14 02:00N 59°20' E 018°05'0 0.0
2017-Nov-14 01:30N 59°20' E 018°05'0 0.0
2017-Nov-14 01:00N 59°20' E 018°05'0 0.0
2017-Nov-14 00:30N 59°20' E 018°05'0 0.0
2017-Nov-14 00:00N 59°20' E 018°05'0 0.0
2017-Nov-13 23:31N 59°20' E 018°05'0 0.0
2017-Nov-13 23:00N 59°20' E 018°05'0 0.0
2017-Nov-13 22:30N 59°20' E 018°05'0 0.0
2017-Nov-13 22:00N 59°20' E 018°05'  
Track history (hours):
 
Tides and Currents Weather Stations Pressure Air Temp Water Temp Dewpoint Dewpoint Depression Visibility Wind Speed Wind Dir Waves Ship Positions

Vano

Last reported at 2017-Nov-23 19:00 UTC. Time now 2017-Nov-23 20:49 UTC.
Position N 59°27' E 018°55'.

Length 38 m; draft 2.5 m.

Type: Passenger vessel. MMSI: 265520400.

Date/timePositionNaut miles runAvg speedWind from/ knotsBaromVisibWave heightAir tempDewpointWater temp
2017-Nov-23 19:00N 59°27' E 018°55'0 0.0
2017-Nov-23 18:30N 59°27' E 018°55'1 2.4
2017-Nov-23 18:00N 59°25' E 018°55'3 6.6
2017-Nov-23 17:29N 59°23' E 018°50'7 2.7
2017-Nov-23 14:53N 59°22' E 018°36'6 5.0
2017-Nov-23 13:46N 59°24' E 018°47'4 5.7
2017-Nov-23 13:01N 59°25' E 018°55'0 9.0
2017-Nov-23 12:59N 59°25' E 018°55'1 2.5
2017-Nov-23 12:30N 59°27' E 018°55'0 0.0
2017-Nov-23 12:00N 59°27' E 018°55'1 2.4
2017-Nov-23 11:30N 59°25' E 018°55'3 5.1
2017-Nov-23 10:53N 59°22' E 018°53'3 7.6
2017-Nov-23 10:26N 59°24' E 018°47'3 5.2
2017-Nov-23 09:50N 59°22' E 018°42'3 1.0
2017-Nov-23 06:55N 59°22' E 018°36'4 8.7
2017-Nov-23 06:26N 59°26' E 018°39'2 3.5
2017-Nov-23 06:00N 59°26' E 018°42'5 9.9
2017-Nov-23 05:31N 59°29' E 018°49'2 3.9
2017-Nov-23 05:00N 59°28' E 018°47'  
2017-Nov-20 00:30N 59°20' E 018°05'0 0.0
2017-Nov-20 00:01N 59°20' E 018°05'0 0.0
2017-Nov-19 23:30N 59°20' E 018°05'0 0.0
2017-Nov-19 23:01N 59°20' E 018°05'0 0.0
2017-Nov-19 22:30N 59°20' E 018°05'0 0.0
2017-Nov-19 22:01N 59°20' E 018°05'0 0.0
2017-Nov-19 21:30N 59°20' E 018°05'0 0.0
2017-Nov-19 21:00N 59°20' E 018°05'0 0.0
2017-Nov-19 20:31N 59°20' E 018°05'0 0.0
2017-Nov-19 20:00N 59°20' E 018°05'4 8.9
2017-Nov-19 19:30N 59°21' E 018°13'510.9
2017-Nov-19 19:01N 59°24' E 018°21'3 5.1
2017-Nov-19 18:30N 59°26' E 018°25'7 8.7
2017-Nov-19 17:44N 59°23' E 018°38'3 9.1
2017-Nov-19 17:23N 59°26' E 018°39'2 5.0
2017-Nov-19 16:59N 59°27' E 018°43'0 0.0
2017-Nov-19 16:30N 59°26' E 018°43'713.5
2017-Nov-19 15:59N 59°25' E 018°30'510.2
2017-Nov-19 15:30N 59°24' E 018°21'713.5
2017-Nov-19 15:00N 59°19' E 018°11'3 6.2
2017-Nov-19 14:30N 59°20' E 018°04'2 3.0
2017-Nov-19 14:00N 59°19' E 018°07'611.9
2017-Nov-19 13:30N 59°22' E 018°17'4 7.8
2017-Nov-19 13:00N 59°25' E 018°23'611.4
2017-Nov-19 12:30N 59°24' E 018°34'4 7.6
2017-Nov-19 11:59N 59°26' E 018°41'3 5.7
2017-Nov-19 11:30N 59°28' E 018°44'0 0.3
2017-Nov-19 10:23N 59°28' E 018°45'2 4.5
2017-Nov-19 10:00N 59°26' E 018°43'3 6.3
2017-Nov-19 09:30N 59°25' E 018°38'2 4.2
2017-Nov-19 08:59N 59°24' E 018°34'4 9.5
2017-Nov-19 08:30N 59°26' E 018°25'4 7.9
2017-Nov-19 08:00N 59°23' E 018°20'713.3
2017-Nov-19 07:30N 59°19' E 018°09'2 4.6
2017-Nov-19 07:01N 59°20' E 018°04'0 0.0
2017-Nov-19 06:31N 59°20' E 018°04'0 0.0
2017-Nov-19 06:01N 59°20' E 018°04'0 0.0
2017-Nov-19 05:31N 59°20' E 018°04'0 0.0
2017-Nov-19 05:01N 59°20' E 018°04'0 0.0
2017-Nov-19 04:30N 59°20' E 018°04'0 0.0
2017-Nov-19 04:00N 59°20' E 018°04'0 0.0
2017-Nov-19 03:31N 59°20' E 018°04'0 0.0
2017-Nov-19 03:01N 59°20' E 018°04'0 0.0
2017-Nov-19 02:30N 59°20' E 018°04'0 0.0
2017-Nov-19 02:01N 59°20' E 018°04'0 0.0
2017-Nov-19 01:31N 59°20' E 018°04'0 0.0
2017-Nov-19 01:01N 59°20' E 018°04'0 0.0
2017-Nov-19 00:31N 59°20' E 018°04'0 0.0
2017-Nov-19 00:00N 59°20' E 018°04'0 0.0
2017-Nov-18 23:30N 59°20' E 018°04'0 0.0
2017-Nov-18 23:00N 59°20' E 018°04'0 0.0
2017-Nov-18 22:30N 59°20' E 018°04'0 0.0
2017-Nov-18 22:01N 59°20' E 018°04'0 0.0
2017-Nov-18 21:30N 59°20' E 018°04'0 0.0
2017-Nov-18 21:00N 59°20' E 018°04'0 0.0
2017-Nov-18 20:30N 59°20' E 018°04'0 0.0
2017-Nov-18 20:00N 59°20' E 018°04'0 0.0
2017-Nov-18 19:30N 59°20' E 018°04'0 0.0
2017-Nov-18 19:01N 59°20' E 018°04'0 0.0
2017-Nov-18 18:30N 59°20' E 018°04'0 0.0
2017-Nov-18 18:00N 59°20' E 018°04'0 0.0
2017-Nov-18 17:30N 59°20' E 018°04'4 7.9
2017-Nov-18 17:00N 59°20' E 018°12'612.3
2017-Nov-18 16:30N 59°24' E 018°21'3 6.8
2017-Nov-18 16:00N 59°25' E 018°28'511.2
2017-Nov-18 15:31N 59°22' E 018°36'4 7.6
2017-Nov-18 14:58N 59°26' E 018°39'0 0.1
2017-Nov-18 10:23N 59°26' E 018°39'410.1
2017-Nov-18 10:01N 59°24' E 018°33'3 5.8
2017-Nov-18 09:30N 59°26' E 018°28'3 7.1
2017-Nov-18 09:01N 59°24' E 018°21'5 9.0
2017-Nov-18 08:30N 59°21' E 018°14'510.5
2017-Nov-18 08:01N 59°20' E 018°04'0 0.1
2017-Nov-18 07:30N 59°20' E 018°04'0 0.0
2017-Nov-18 07:00N 59°20' E 018°04'0 0.0
2017-Nov-18 06:30N 59°20' E 018°04'0 0.0
2017-Nov-18 06:00N 59°20' E 018°04'0 0.0
2017-Nov-18 05:30N 59°20' E 018°04'0 0.0
2017-Nov-18 05:01N 59°20' E 018°04'0 0.0
2017-Nov-18 04:31N 59°20' E 018°04'0 0.0
2017-Nov-18 04:00N 59°20' E 018°04'0 0.0
2017-Nov-18 03:31N 59°20' E 018°04'0 0.0
2017-Nov-18 03:00N 59°20' E 018°04'0 0.0
2017-Nov-18 02:30N 59°20' E 018°04'0 0.0
2017-Nov-18 02:00N 59°20' E 018°04'0 0.0
2017-Nov-18 01:30N 59°20' E 018°04'0 0.0
2017-Nov-18 01:01N 59°20' E 018°04'0 0.0
2017-Nov-18 00:30N 59°20' E 018°04'0 0.0
2017-Nov-18 00:00N 59°20' E 018°04'0 0.0
2017-Nov-17 23:31N 59°20' E 018°04'0 0.0
2017-Nov-17 23:00N 59°20' E 018°04'0 0.0
2017-Nov-17 22:30N 59°20' E 018°04'1 2.5
2017-Nov-17 22:01N 59°19' E 018°07'612.8
2017-Nov-17 21:30N 59°23' E 018°17'5 9.8
2017-Nov-17 20:59N 59°26' E 018°25'510.5
2017-Nov-17 20:30N 59°24' E 018°35'810.8
2017-Nov-17 19:46N 59°28' E 018°48'2 5.4
2017-Nov-17 19:28N 59°30' E 018°50'9 7.5
2017-Nov-17 18:19N 59°26' E 018°35'413.0
2017-Nov-17 18:00N 59°26' E 018°26'4 7.7
2017-Nov-17 17:30N 59°24' E 018°21'4 8.6
2017-Nov-17 17:01N 59°21' E 018°15'510.7
2017-Nov-17 16:30N 59°20' E 018°04'0 0.1
2017-Nov-17 16:00N 59°20' E 018°04'0 0.0
2017-Nov-17 15:30N 59°20' E 018°04'0 0.0
2017-Nov-17 15:00N 59°20' E 018°04'0 0.0
2017-Nov-17 14:30N 59°20' E 018°04'0 0.0
2017-Nov-17 14:00N 59°20' E 018°04'0 0.0
2017-Nov-17 13:30N 59°20' E 018°04'0 0.0
2017-Nov-17 13:01N 59°20' E 018°04'0 0.0
2017-Nov-17 12:31N 59°20' E 018°04'0 0.0
2017-Nov-17 12:00N 59°20' E 018°04'0 0.0
2017-Nov-17 11:30N 59°20' E 018°04'0 0.0
2017-Nov-17 11:00N 59°20' E 018°04'0 0.0
2017-Nov-17 10:30N 59°20' E 018°04'0 0.0
2017-Nov-17 10:00N 59°20' E 018°04'0 0.0
2017-Nov-17 09:30N 59°20' E 018°04'1 2.0
2017-Nov-17 09:01N 59°19' E 018°06'5 9.7
2017-Nov-17 08:30N 59°21' E 018°14'4 8.5
2017-Nov-17 08:00N 59°24' E 018°21'3 6.8
2017-Nov-17 07:30N 59°26' E 018°27'510.6
2017-Nov-17 06:59N 59°23' E 018°36'4 8.3
2017-Nov-17 06:29N 59°23' E 018°44'3 5.6
2017-Nov-17 06:00N 59°23' E 018°50'4 7.2
2017-Nov-17 05:30N 59°25' E 018°55'1 2.4
2017-Nov-17 05:01N 59°27' E 018°55'0 0.0
2017-Nov-17 04:31N 59°27' E 018°55'0 0.0
2017-Nov-17 04:01N 59°27' E 018°55'0 0.0
2017-Nov-17 03:31N 59°27' E 018°55'0 0.0
2017-Nov-17 03:01N 59°27' E 018°55'0 0.0
2017-Nov-17 02:31N 59°27' E 018°55'0 0.0
2017-Nov-17 02:01N 59°27' E 018°55'0 0.0
2017-Nov-17 01:31N 59°27' E 018°55'0 0.0
2017-Nov-17 01:01N 59°27' E 018°55'0 0.0
2017-Nov-17 00:31N 59°27' E 018°55'0 0.0
2017-Nov-17 00:01N 59°27' E 018°55'0 0.0
2017-Nov-16 23:31N 59°27' E 018°55'0 0.0
2017-Nov-16 23:01N 59°27' E 018°55'0 0.0
2017-Nov-16 22:29N 59°27' E 018°55'0 0.0
2017-Nov-16 21:58N 59°27' E 018°55'0 0.0
2017-Nov-16 21:29N 59°27' E 018°55'0 0.0
2017-Nov-16 21:00N 59°27' E 018°55'0 0.0
2017-Nov-16 20:29N 59°27' E 018°55'0 0.0
2017-Nov-16 20:01N 59°27' E 018°55'0 0.0
2017-Nov-16 19:30N 59°27' E 018°55'0 0.0
2017-Nov-16 19:00N 59°27' E 018°55'0 0.0
2017-Nov-16 18:31N 59°27' E 018°55'1 2.1
2017-Nov-16 18:01N 59°27' E 018°53'3 4.4
2017-Nov-16 17:26N 59°24' E 018°53'3 6.9
2017-Nov-16 16:59N 59°24' E 018°47'5 7.7
2017-Nov-16 16:24N 59°23' E 018°39'1 0.8
2017-Nov-16 14:55N 59°22' E 018°36'4 8.0
2017-Nov-16 14:27N 59°23' E 018°43'6 4.4
2017-Nov-16 13:02N 59°25' E 018°55'1 7.9
2017-Nov-16 12:51N 59°27' E 018°55'1 3.3
2017-Nov-16 12:30N 59°27' E 018°53'0 0.0
2017-Nov-16 12:00N 59°27' E 018°53'1 2.1
2017-Nov-16 11:30N 59°27' E 018°55'5 6.8
2017-Nov-16 10:50N 59°23' E 018°50'2 5.4
2017-Nov-16 10:29N 59°24' E 018°47'2 3.5
2017-Nov-16 09:51N 59°23' E 018°43'4 1.2
2017-Nov-16 06:55N 59°22' E 018°36'4 8.9
2017-Nov-16 06:26N 59°26' E 018°39'2 4.9
2017-Nov-16 06:00N 59°26' E 018°44'4 8.2
2017-Nov-16 05:31N 59°29' E 018°50'1 1.7
2017-Nov-16 04:52N 59°30' E 018°51'0 0.0
2017-Nov-16 04:29N 59°30' E 018°51'0 0.0
2017-Nov-16 04:00N 59°30' E 018°51'0 0.0
2017-Nov-16 03:29N 59°30' E 018°51'0 0.0
2017-Nov-16 03:00N 59°30' E 018°51'0 0.0
2017-Nov-16 02:29N 59°30' E 018°51'0 0.0
2017-Nov-16 02:00N 59°30' E 018°51'0 0.0
2017-Nov-16 01:28N 59°30' E 018°51'0 0.0
2017-Nov-16 00:51N 59°30' E 018°51'0 0.0
2017-Nov-16 00:27N 59°30' E 018°51'0 0.0
2017-Nov-15 23:36N 59°30' E 018°51'0 0.0
2017-Nov-15 17:33N 59°30' E 018°51'0 2.2
2017-Nov-15 17:30N 59°30' E 018°51'610.7
2017-Nov-15 16:57N 59°26' E 018°42'3 5.7
2017-Nov-15 16:24N 59°24' E 018°37'5 5.9
2017-Nov-15 15:31N 59°25' E 018°27'013.6
2017-Nov-15 15:30N 59°25' E 018°27'3 7.0
2017-Nov-15 15:00N 59°24' E 018°21'4 8.5
2017-Nov-15 14:30N 59°21' E 018°15'510.6
2017-Nov-15 14:00N 59°20' E 018°04'0 0.0
2017-Nov-15 13:30N 59°20' E 018°05'0 0.0
2017-Nov-15 13:00N 59°20' E 018°05'0 0.0
2017-Nov-15 12:30N 59°20' E 018°05'0 0.0
2017-Nov-15 12:00N 59°20' E 018°05'0 0.0
2017-Nov-15 11:30N 59°20' E 018°05'0 0.0
2017-Nov-15 11:01N 59°20' E 018°05'0 0.0
2017-Nov-15 10:30N 59°20' E 018°05'0 0.0
2017-Nov-15 10:00N 59°20' E 018°05'0 0.0
2017-Nov-15 09:30N 59°20' E 018°05'0 0.0
2017-Nov-15 09:00N 59°20' E 018°05'0 0.0
2017-Nov-15 08:30N 59°20' E 018°05'0 0.0
2017-Nov-15 08:00N 59°20' E 018°05'0 0.0
2017-Nov-15 07:30N 59°20' E 018°05'0 0.0
2017-Nov-15 07:00N 59°20' E 018°05'3 6.1
2017-Nov-15 06:30N 59°19' E 018°10'510.7
2017-Nov-15 06:00N 59°23' E 018°19'2 4.2
2017-Nov-15 05:30N 59°24' E 018°23'0 0.8
2017-Nov-15 05:00N 59°24' E 018°22'0 0.8
2017-Nov-15 04:30N 59°24' E 018°21'0 0.0
2017-Nov-15 04:00N 59°24' E 018°21'0 0.0
2017-Nov-15 03:30N 59°24' E 018°21'0 0.0
2017-Nov-15 03:00N 59°24' E 018°21'0 0.0
2017-Nov-15 02:30N 59°24' E 018°21'0 0.0
2017-Nov-15 02:00N 59°24' E 018°21'0 0.0
2017-Nov-15 01:30N 59°24' E 018°21'0 0.0
2017-Nov-15 01:00N 59°24' E 018°21'0 0.0
2017-Nov-15 00:30N 59°24' E 018°21'0 0.0
2017-Nov-15 00:01N 59°24' E 018°21'0 0.0
2017-Nov-14 23:30N 59°24' E 018°21'0 0.0
2017-Nov-14 23:00N 59°24' E 018°21'0 0.0
2017-Nov-14 22:30N 59°24' E 018°21'0 0.0
2017-Nov-14 22:00N 59°24' E 018°21'0 0.0
2017-Nov-14 21:30N 59°24' E 018°21'0 0.0
2017-Nov-14 21:00N 59°24' E 018°21'0 0.0
2017-Nov-14 20:30N 59°24' E 018°21'0 0.0
2017-Nov-14 20:00N 59°24' E 018°21'0 0.0
2017-Nov-14 19:30N 59°24' E 018°21'0 0.0
2017-Nov-14 19:00N 59°24' E 018°21'0 0.0
2017-Nov-14 18:30N 59°24' E 018°21'1 2.4
2017-Nov-14 18:00N 59°24' E 018°23'2 3.1
2017-Nov-14 17:31N 59°23' E 018°20'4 8.5
2017-Nov-14 17:00N 59°21' E 018°13'5 9.3
2017-Nov-14 16:30N 59°20' E 018°05'0 0.0
2017-Nov-14 16:00N 59°20' E 018°05'0 0.0
2017-Nov-14 15:30N 59°20' E 018°05'0 0.0
2017-Nov-14 15:00N 59°20' E 018°05'0 0.0
2017-Nov-14 14:31N 59°20' E 018°05'0 0.0
2017-Nov-14 14:00N 59°20' E 018°05'0 0.0
2017-Nov-14 13:30N 59°20' E 018°05'0 0.0
2017-Nov-14 13:00N 59°20' E 018°05'0 0.0
2017-Nov-14 12:30N 59°20' E 018°05'0 0.0
2017-Nov-14 12:00N 59°20' E 018°05'0 0.0
2017-Nov-14 11:30N 59°20' E 018°05'0 0.0
2017-Nov-14 11:00N 59°20' E 018°05'0 0.0
2017-Nov-14 10:31N 59°20' E 018°05'0 0.0
2017-Nov-14 10:00N 59°20' E 018°05'0 0.0
2017-Nov-14 09:30N 59°20' E 018°05'0 0.0
2017-Nov-14 09:00N 59°20' E 018°05'0 0.0
2017-Nov-14 08:30N 59°20' E 018°05'0 0.0
2017-Nov-14 08:00N 59°20' E 018°05'0 0.0
2017-Nov-14 07:30N 59°20' E 018°05'0 0.0
2017-Nov-14 07:00N 59°20' E 018°05'0 0.0
2017-Nov-14 06:30N 59°20' E 018°05'0 0.0
2017-Nov-14 06:00N 59°20' E 018°05'0 0.0
2017-Nov-14 05:30N 59°20' E 018°05'0 0.0
2017-Nov-14 05:00N 59°20' E 018°05'0 0.0
2017-Nov-14 04:30N 59°20' E 018°05'0 0.0
2017-Nov-14 04:00N 59°20' E 018°05'0 0.0
2017-Nov-14 03:30N 59°20' E 018°05'0 0.0
2017-Nov-14 03:00N 59°20' E 018°05'0 0.0
2017-Nov-14 02:31N 59°20' E 018°05'0 0.0
2017-Nov-14 02:00N 59°20' E 018°05'0 0.0
2017-Nov-14 01:30N 59°20' E 018°05'0 0.0
2017-Nov-14 01:00N 59°20' E 018°05'0 0.0
2017-Nov-14 00:30N 59°20' E 018°05'0 0.0
2017-Nov-14 00:00N 59°20' E 018°05'0 0.0
2017-Nov-13 23:31N 59°20' E 018°05'0 0.0
2017-Nov-13 23:00N 59°20' E 018°05'0 0.0
2017-Nov-13 22:30N 59°20' E 018°05'0 0.0
2017-Nov-13 22:00N 59°20' E 018°05'  

Dump ship's entire track history